Time;durP1;ratioP1;P1;durP2;ratioP2;P2;SDS_P1;SDS_P2;PMS_P1;PMS_P2;Temp;Humidity;BMP_temperature;BMP_pressure;BME280_temperature;BME280_humidity;BME280_pressure;Samples;Min_cycle;Max_cycle;Signal;HPM_P1;HPM_P2
2022/06/23 00:00:44;;;;;;;10.70;6.70;;;;;;;;;;5037101;27;93340;-74
2022/06/23 00:03:16;;;;;;;11.18;6.55;;;;;;;;;;5039839;27;93458;-74
2022/06/23 00:05:42;;;;;;;15.82;6.80;;;;;;;;;;5034604;27;92490;-74
2022/06/23 00:08:12;;;;;;;8.38;6.05;;;;;;;;;;5054344;27;93237;-74
2022/06/23 00:10:38;;;;;;;15.10;6.72;;;;;;;;;;5036990;27;92492;-74
2022/06/23 00:13:22;;;;;;;12.35;6.43;;;;;;;;;;5034347;27;93156;-74
2022/06/23 00:15:49;;;;;;;11.82;6.97;;;;;;;;;;5041330;27;94149;-74
2022/06/23 00:18:20;;;;;;;8.98;7.10;;;;;;;;;;5035376;27;92831;-74
2022/06/23 00:20:47;;;;;;;16.60;7.53;;;;;;;;;;5032658;27;95238;-74
2022/06/23 00:23:19;;;;;;;9.52;6.95;;;;;;;;;;5036437;27;94437;-74
2022/06/23 00:25:56;;;;;;;13.63;7.10;;;;;;;;;;5046549;27;92411;-74
2022/06/23 00:28:25;;;;;;;15.55;7.57;;;;;;;;;;5038210;27;93322;-74
2022/06/23 00:30:56;;;;;;;11.02;6.50;;;;;;;;;;5055900;27;93420;-74
2022/06/23 00:33:24;;;;;;;9.65;6.75;;;;;;;;;;5035491;27;93928;-74
2022/06/23 00:35:51;;;;;;;10.55;7.13;;;;;;;;;;5037853;27;93308;-74
2022/06/23 00:38:19;;;;;;;7.82;6.30;;;;;;;;;;5041078;27;91750;-74
2022/06/23 00:40:45;;;;;;;15.23;8.00;;;;;;;;;;5033430;27;92519;-74
2022/06/23 00:43:12;;;;;;;14.48;7.40;;;;;;;;;;5039670;27;94350;-74
2022/06/23 00:45:48;;;;;;;15.95;7.03;;;;;;;;;;5044153;27;94845;-74
2022/06/23 00:48:15;;;;;;;11.13;6.72;;;;;;;;;;5033955;27;96542;-74
2022/06/23 00:50:47;;;;;;;9.77;6.97;;;;;;;;;;5041980;27;93203;-74
2022/06/23 00:53:16;;;;;;;13.30;7.03;;;;;;;;;;5050588;27;92484;-73
2022/06/23 00:55:58;;;;;;;9.40;6.55;;;;;;;;;;5052755;27;94276;-74
2022/06/23 00:58:31;;;;;;;12.55;7.60;;;;;;;;;;5039166;27;92442;-74
2022/06/23 01:01:00;;;;;;;10.07;6.93;;;;;;;;;;5042630;27;94010;-73
2022/06/23 01:03:30;;;;;;;7.85;7.05;;;;;;;;;;5033597;27;92498;-74
2022/06/23 01:06:04;;;;;;;12.77;7.15;;;;;;;;;;5043587;27;92442;-74
2022/06/23 01:08:36;;;;;;;12.60;7.15;;;;;;;;;;5046636;27;93329;-74
2022/06/23 01:11:21;;;;;;;10.88;7.20;;;;;;;;;;5043110;27;95999;-74
2022/06/23 01:13:57;;;;;;;14.30;7.03;;;;;;;;;;5053204;27;92510;-74
2022/06/23 01:16:31;;;;;;;17.73;7.28;;;;;;;;;;5045613;27;93237;-74
2022/06/23 01:18:57;;;;;;;14.60;7.82;;;;;;;;;;5045332;27;92497;-74
2022/06/23 01:21:29;;;;;;;10.02;6.90;;;;;;;;;;5048377;27;93756;-75
2022/06/23 01:24:04;;;;;;;12.47;7.93;;;;;;;;;;5042268;27;93400;-74
2022/06/23 01:26:49;;;;;;;10.63;8.02;;;;;;;;;;5039324;27;92504;-73
2022/06/23 01:29:20;;;;;;;10.93;7.93;;;;;;;;;;5046177;27;93346;-75
2022/06/23 01:31:48;;;;;;;10.18;7.50;;;;;;;;;;5049922;27;94314;-75
2022/06/23 01:34:19;;;;;;;10.68;7.50;;;;;;;;;;5034373;27;92545;-75
2022/06/23 01:36:58;;;;;;;9.25;7.50;;;;;;;;;;5035942;27;96222;-73
2022/06/23 01:39:28;;;;;;;14.68;8.55;;;;;;;;;;5040866;27;92468;-74
2022/06/23 01:42:06;;;;;;;8.32;7.53;;;;;;;;;;5042771;27;95214;-75
2022/06/23 01:44:41;;;;;;;9.20;7.65;;;;;;;;;;5033186;27;94130;-74
2022/06/23 01:47:23;;;;;;;15.40;8.65;;;;;;;;;;5042852;27;92782;-73
2022/06/23 01:49:52;;;;;;;13.20;8.02;;;;;;;;;;5039122;27;93962;-73
2022/06/23 01:52:20;;;;;;;14.60;8.77;;;;;;;;;;5033123;27;94154;-74
2022/06/23 01:54:47;;;;;;;13.23;8.73;;;;;;;;;;5042273;27;91696;-74
2022/06/23 01:57:22;;;;;;;11.77;8.00;;;;;;;;;;5033917;27;93511;-74
2022/06/23 02:00:07;;;;;;;17.02;8.82;;;;;;;;;;5031546;27;93289;-74
2022/06/23 02:02:47;;;;;;;10.88;8.50;;;;;;;;;;5035472;27;94854;-74
2022/06/23 02:05:21;;;;;;;18.67;8.50;;;;;;;;;;5033375;27;94063;-74
2022/06/23 02:07:54;;;;;;;10.77;8.25;;;;;;;;;;5039734;27;92482;-74
2022/06/23 02:10:20;;;;;;;14.25;9.43;;;;;;;;;;5044992;27;92878;-74
2022/06/23 02:12:47;;;;;;;11.45;8.70;;;;;;;;;;5037380;27;93237;-74
2022/06/23 02:15:36;;;;;;;15.77;8.90;;;;;;;;;;5041228;27;92525;-74
2022/06/23 02:18:06;;;;;;;12.18;8.82;;;;;;;;;;4985971;27;92674;-74
2022/06/23 02:20:38;;;;;;;13.40;8.82;;;;;;;;;;5032450;27;92889;-74
2022/06/23 02:23:06;;;;;;;;;;;;;;;;;;5051960;27;93431;-74
2022/06/23 02:25:35;;;;;;;13.23;9.02;;;;;;;;;;5049462;27;123799;-74
2022/06/23 02:28:13;;;;;;;20.98;9.50;;;;;;;;;;5048334;27;94817;-74
2022/06/23 02:31:06;;;;;;;12.75;9.38;;;;;;;;;;5032776;27;96357;-74
2022/06/23 02:33:41;;;;;;;15.38;9.05;;;;;;;;;;4997271;28;94381;-74
2022/06/23 02:36:28;;;;;;;11.93;9.32;;;;;;;;;;5034198;27;92480;-74
2022/06/23 02:38:56;;;;;;;13.75;9.57;;;;;;;;;;5032223;27;92454;-74
2022/06/23 02:41:41;;;;;;;12.13;9.45;;;;;;;;;;5050871;27;94164;-74
2022/06/23 02:44:16;;;;;;;16.52;10.73;;;;;;;;;;5044429;27;92576;-74
2022/06/23 02:46:49;;;;;;;12.57;10.23;;;;;;;;;;5050744;27;93959;-74
2022/06/23 02:49:15;;;;;;;13.13;10.77;;;;;;;;;;5038226;27;93056;-74
2022/06/23 02:51:44;;;;;;;15.90;9.85;;;;;;;;;;5051453;27;94142;-74
2022/06/23 02:54:36;;;;;;;17.10;10.18;;;;;;;;;;5034232;27;96692;-74
2022/06/23 02:57:15;;;;;;;19.55;10.60;;;;;;;;;;5043102;27;92488;-75
2022/06/23 02:59:44;;;;;;;13.55;10.18;;;;;;;;;;5039403;27;94072;-75
2022/06/23 03:02:18;;;;;;;13.82;10.32;;;;;;;;;;5054946;27;94292;-75
2022/06/23 03:04:47;;;;;;;19.38;10.60;;;;;;;;;;5046743;27;92491;-75
2022/06/23 03:07:25;;;;;;;13.13;10.85;;;;;;;;;;5039365;27;94023;-75
2022/06/23 03:10:04;;;;;;;15.88;9.40;;;;;;;;;;5036806;27;93396;-75
2022/06/23 03:12:37;;;;;;;13.23;9.70;;;;;;;;;;5036608;27;94140;-75
2022/06/23 03:15:10;;;;;;;18.40;9.73;;;;;;;;;;5043287;27;92455;-75
2022/06/23 03:17:40;;;;;;;19.95;9.93;;;;;;;;;;5036364;27;92505;-75
2022/06/23 03:20:25;;;;;;;14.00;9.73;;;;;;;;;;5034981;27;94926;-75
2022/06/23 03:22:57;;;;;;;16.15;9.77;;;;;;;;;;5034915;27;93766;-74
2022/06/23 03:25:31;;;;;;;15.45;9.75;;;;;;;;;;5036069;27;92415;-75
2022/06/23 03:28:00;;;;;;;19.05;10.70;;;;;;;;;;5049193;27;96523;-75
2022/06/23 03:30:41;;;;;;;12.48;9.75;;;;;;;;;;5042386;27;93403;-75
2022/06/23 03:33:14;;;;;;;11.95;9.80;;;;;;;;;;5038717;27;92588;-74
2022/06/23 03:35:47;;;;;;;15.20;10.40;;;;;;;;;;5046458;27;94419;-75
2022/06/23 03:41:36;;;;;;;15.95;10.35;;;;;;;;;;5046627;27;92402;-73
2022/06/23 03:44:01;;;;;;;16.35;10.93;;;;;;;;;;5053751;27;94552;-73
2022/06/23 03:46:33;;;;;;;12.02;10.45;;;;;;;;;;5044641;27;94910;-74
2022/06/23 03:49:12;;;;;;;17.25;11.02;;;;;;;;;;5043321;27;96260;-75
2022/06/23 03:51:40;;;;;;;18.63;11.43;;;;;;;;;;5032492;27;93315;-75
2022/06/23 03:54:11;;;;;;;17.30;9.98;;;;;;;;;;5035287;27;92557;-75
2022/06/23 03:56:43;;;;;;;20.17;10.68;;;;;;;;;;5052075;27;92954;-75
2022/06/23 03:59:14;;;;;;;11.20;10.13;;;;;;;;;;5041900;27;93021;-75
2022/06/23 04:01:44;;;;;;;12.43;10.05;;;;;;;;;;5042491;27;93781;-75
2022/06/23 04:04:16;;;;;;;14.77;9.90;;;;;;;;;;5054542;27;93720;-75
2022/06/23 04:06:44;;;;;;;12.52;10.57;;;;;;;;;;5034971;27;92564;-75
2022/06/23 04:09:13;;;;;;;16.25;9.98;;;;;;;;;;5039248;27;94143;-75
2022/06/23 04:12:00;;;;;;;19.52;10.90;;;;;;;;;;5043435;27;96779;-74
2022/06/23 04:14:49;;;;;;;11.05;9.48;;;;;;;;;;5021510;27;92590;-74
2022/06/23 04:17:18;;;;;;;10.75;8.73;;;;;;;;;;5035867;27;94369;-74
2022/06/23 04:19:49;;;;;;;20.75;10.25;;;;;;;;;;5037119;27;94188;-75
2022/06/23 04:22:18;;;;;;;11.43;9.80;;;;;;;;;;5038128;27;94239;-74
2022/06/23 04:24:45;;;;;;;12.63;10.85;;;;;;;;;;5034844;27;93155;-74
2022/06/23 04:27:15;;;;;;;14.38;10.30;;;;;;;;;;5032875;27;92652;-74
2022/06/23 04:29:41;;;;;;;13.75;10.48;;;;;;;;;;5034225;27;94909;-74
2022/06/23 04:32:14;;;;;;;15.63;9.27;;;;;;;;;;5032238;27;93577;-75
2022/06/23 04:34:50;;;;;;;15.65;9.75;;;;;;;;;;5034710;27;92888;-75
2022/06/23 04:37:39;;;;;;;10.63;9.55;;;;;;;;;;5045176;27;94946;-75
2022/06/23 04:40:28;;;;;;;15.82;9.88;;;;;;;;;;5028800;27;93808;-75
2022/06/23 04:43:21;;;;;;;16.02;9.57;;;;;;;;;;5034295;27;93281;-74
2022/06/23 04:46:06;;;;;;;13.30;9.30;;;;;;;;;;5037286;27;94142;-75
2022/06/23 04:48:38;;;;;;;13.13;8.65;;;;;;;;;;5037476;27;92624;-74
2022/06/23 04:51:20;;;;;;;17.70;9.80;;;;;;;;;;5050508;27;93335;-74
2022/06/23 04:53:55;;;;;;;16.48;9.30;;;;;;;;;;5032594;27;93250;-75
2022/06/23 04:56:31;;;;;;;13.15;9.10;;;;;;;;;;5040366;27;91751;-75
2022/06/23 04:59:04;;;;;;;11.20;9.65;;;;;;;;;;5042360;27;92459;-75
2022/06/23 05:01:35;;;;;;;16.92;9.52;;;;;;;;;;5033199;27;93324;-75
2022/06/23 05:04:11;;;;;;;13.52;8.45;;;;;;;;;;5035732;27;95973;-75
2022/06/23 05:06:40;;;;;;;14.35;9.10;;;;;;;;;;5048772;27;94123;-75
2022/06/23 05:09:27;;;;;;;11.45;8.07;;;;;;;;;;5045295;27;92593;-75
2022/06/23 05:11:56;;;;;;;13.68;7.85;;;;;;;;;;5045699;27;93884;-75
2022/06/23 05:14:35;;;;;;;15.40;9.18;;;;;;;;;;5038554;27;94285;-75
2022/06/23 05:17:04;;;;;;;11.68;8.95;;;;;;;;;;5036336;27;92517;-75
2022/06/23 05:19:33;;;;;;;12.35;8.43;;;;;;;;;;5044107;27;93876;-75
2022/06/23 05:22:00;;;;;;;15.50;8.05;;;;;;;;;;5037447;27;93290;-75
2022/06/23 05:24:28;;;;;;;13.23;7.97;;;;;;;;;;5044102;27;92854;-75
2022/06/23 05:26:58;;;;;;;11.57;8.32;;;;;;;;;;5036856;27;93923;-75
2022/06/23 05:29:27;;;;;;;14.45;7.97;;;;;;;;;;5036455;27;94889;-75
2022/06/23 05:31:55;;;;;;;14.27;8.82;;;;;;;;;;5037494;27;95589;-74
2022/06/23 05:34:24;;;;;;;10.52;8.68;;;;;;;;;;5027532;27;94128;-74
2022/06/23 05:37:15;;;;;;;11.13;8.35;;;;;;;;;;5028450;27;94971;-76
2022/06/23 05:39:46;;;;;;;13.20;7.55;;;;;;;;;;5037684;27;93834;-74
2022/06/23 05:42:16;;;;;;;11.75;8.15;;;;;;;;;;5032419;27;93714;-75
2022/06/23 05:44:48;;;;;;;22.63;7.63;;;;;;;;;;5036295;27;92831;-73
2022/06/23 05:47:15;;;;;;;12.17;6.43;;;;;;;;;;5041387;27;94065;-73
2022/06/23 05:49:44;;;;;;;10.18;6.40;;;;;;;;;;5038917;27;93283;-73
2022/06/23 05:52:14;;;;;;;10.35;6.05;;;;;;;;;;5032790;27;93183;-72
2022/06/23 05:55:09;;;;;;;6.70;5.35;;;;;;;;;;5033296;27;96126;-74
2022/06/23 05:57:41;;;;;;;8.90;5.60;;;;;;;;;;5021623;27;95520;-74
2022/06/23 06:00:17;;;;;;;10.32;5.20;;;;;;;;;;5033705;27;94010;-74
2022/06/23 06:02:53;;;;;;;6.35;5.10;;;;;;;;;;5032987;27;94345;-74
2022/06/23 06:05:34;;;;;;;16.83;5.38;;;;;;;;;;5041972;27;94450;-74
2022/06/23 06:08:03;;;;;;;11.80;5.28;;;;;;;;;;5047687;27;94075;-73
2022/06/23 06:10:30;;;;;;;14.35;5.18;;;;;;;;;;5037529;27;94114;-72
2022/06/23 06:12:57;;;;;;;9.07;4.78;;;;;;;;;;5040616;27;91807;-72
2022/06/23 06:15:28;;;;;;;9.55;5.15;;;;;;;;;;5033836;27;94257;-72
2022/06/23 06:18:21;;;;;;;9.15;4.85;;;;;;;;;;5029978;27;94014;-73
2022/06/23 06:20:48;;;;;;;6.20;4.68;;;;;;;;;;5022593;27;96720;-72
2022/06/23 06:23:17;;;;;;;7.82;4.90;;;;;;;;;;5033793;27;93680;-72
2022/06/23 06:25:44;;;;;;;10.82;4.63;;;;;;;;;;5027964;27;93170;-72
2022/06/23 06:28:21;;;;;;;13.93;5.13;;;;;;;;;;5028169;27;94070;-74
2022/06/23 06:30:47;;;;;;;8.13;4.53;;;;;;;;;;5031117;27;94180;-73
2022/06/23 06:33:26;;;;;;;9.82;5.07;;;;;;;;;;5034638;27;94396;-74
2022/06/23 06:35:53;;;;;;;6.30;4.20;;;;;;;;;;5036009;27;93943;-74
2022/06/23 06:38:20;;;;;;;9.15;4.35;;;;;;;;;;5037574;27;93328;-74
2022/06/23 06:40:48;;;;;;;11.07;4.22;;;;;;;;;;5032440;27;93709;-74
2022/06/23 06:43:17;;;;;;;6.88;4.85;;;;;;;;;;5029814;27;94284;-74
2022/06/23 06:45:43;;;;;;;6.53;4.28;;;;;;;;;;5034547;27;94875;-74
2022/06/23 06:48:14;;;;;;;11.70;5.22;;;;;;;;;;5034046;27;96243;-75
2022/06/23 06:50:44;;;;;;;6.93;4.53;;;;;;;;;;5032635;27;94217;-75
2022/06/23 06:53:13;;;;;;;8.52;4.15;;;;;;;;;;5040238;27;93171;-75
2022/06/23 06:55:57;;;;;;;7.75;4.47;;;;;;;;;;5037057;27;94010;-75
2022/06/23 06:58:30;;;;;;;8.32;4.40;;;;;;;;;;5029069;27;93270;-75
2022/06/23 07:01:00;;;;;;;8.32;4.05;;;;;;;;;;5033862;27;94434;-75
2022/06/23 07:03:27;;;;;;;4.82;4.10;;;;;;;;;;5027816;27;93520;-75
2022/06/23 07:06:08;;;;;;;11.93;4.18;;;;;;;;;;5030418;27;94375;-75
2022/06/23 07:08:41;;;;;;;7.88;4.32;;;;;;;;;;5027860;27;93102;-74
2022/06/23 07:11:10;;;;;;;10.07;4.25;;;;;;;;;;5028704;27;97437;-75
2022/06/23 07:13:46;;;;;;;6.57;4.30;;;;;;;;;;5031228;27;92636;-74
2022/06/23 07:16:23;;;;;;;6.85;4.20;;;;;;;;;;5029188;27;93181;-74
2022/06/23 07:18:53;;;;;;;9.05;4.57;;;;;;;;;;5035347;27;94123;-74
2022/06/23 07:21:22;;;;;;;9.43;4.07;;;;;;;;;;5032341;27;92892;-74
2022/06/23 07:23:52;;;;;;;9.90;4.82;;;;;;;;;;5030691;27;93847;-74
2022/06/23 07:26:37;;;;;;;7.18;3.70;;;;;;;;;;5034645;27;93042;-74
2022/06/23 07:29:13;;;;;;;5.25;4.15;;;;;;;;;;5034881;27;94084;-74
2022/06/23 07:31:42;;;;;;;7.05;4.22;;;;;;;;;;5037763;27;94250;-74
2022/06/23 07:34:10;;;;;;;10.15;3.88;;;;;;;;;;5037554;27;94405;-74
2022/06/23 07:36:38;;;;;;;10.35;4.35;;;;;;;;;;5030873;27;95690;-74
2022/06/23 07:39:11;;;;;;;11.18;3.97;;;;;;;;;;5033354;27;95117;-74
2022/06/23 07:41:41;;;;;;;10.55;4.05;;;;;;;;;;5037325;27;92551;-74
2022/06/23 07:44:17;;;;;;;9.63;4.28;;;;;;;;;;5032780;27;95124;-74
2022/06/23 07:46:44;;;;;;;6.00;3.70;;;;;;;;;;5035846;27;92555;-74
2022/06/23 07:49:10;;;;;;;6.70;3.67;;;;;;;;;;5032841;27;93834;-75
2022/06/23 07:51:37;;;;;;;8.52;3.65;;;;;;;;;;5030193;27;93721;-74
2022/06/23 07:54:05;;;;;;;12.20;3.60;;;;;;;;;;5032837;27;92940;-74
2022/06/23 07:56:33;;;;;;;11.43;4.10;;;;;;;;;;5034809;27;93752;-74
2022/06/23 07:59:05;;;;;;;9.98;4.15;;;;;;;;;;5031795;27;94160;-74
2022/06/23 08:01:38;;;;;;;6.50;3.50;;;;;;;;;;5033842;27;95873;-73
2022/06/23 08:04:13;;;;;;;7.47;4.32;;;;;;;;;;5036185;27;95419;-74
2022/06/23 08:06:39;;;;;;;9.40;3.67;;;;;;;;;;5042271;27;92515;-74
2022/06/23 08:09:17;;;;;;;6.32;4.28;;;;;;;;;;5031705;27;94737;-74
2022/06/23 08:16:49;;;;;;;8.95;4.63;;;;;;;;;;5037061;27;92838;-74
2022/06/23 08:17:45;;;;;;;7.32;4.28;;;;;;;;;;5027830;27;93132;-74
2022/06/23 08:20:13;;;;;;;9.07;3.83;;;;;;;;;;5032023;27;93947;-74
2022/06/23 08:22:39;;;;;;;8.43;4.20;;;;;;;;;;5033599;27;94548;-74
2022/06/23 08:25:06;;;;;;;8.98;4.28;;;;;;;;;;5034826;27;93136;-74
2022/06/23 08:27:52;;;;;;;9.02;4.38;;;;;;;;;;5037357;27;97295;-73
2022/06/23 08:30:19;;;;;;;9.90;4.30;;;;;;;;;;5038836;27;96710;-73
2022/06/23 08:32:47;;;;;;;9.30;4.28;;;;;;;;;;5031267;27;94442;-74
2022/06/23 08:35:32;;;;;;;9.82;4.70;;;;;;;;;;5031713;27;93513;-73
2022/06/23 08:38:06;;;;;;;8.57;4.45;;;;;;;;;;5038364;27;94909;-74
2022/06/23 08:40:51;;;;;;;11.70;4.97;;;;;;;;;;5030302;27;94395;-74
2022/06/23 08:43:34;;;;;;;8.55;3.97;;;;;;;;;;5033768;27;92693;-74
2022/06/23 08:46:06;;;;;;;4.60;3.72;;;;;;;;;;5031551;27;94349;-74
2022/06/23 08:48:42;;;;;;;5.05;4.25;;;;;;;;;;5039238;27;94403;-74
2022/06/23 08:51:21;;;;;;;5.85;4.70;;;;;;;;;;5036407;27;92585;-74
2022/06/23 08:53:58;;;;;;;6.70;4.30;;;;;;;;;;5032016;27;96415;-74
2022/06/23 08:56:29;;;;;;;5.90;3.95;;;;;;;;;;5043423;27;92540;-74
2022/06/23 08:59:16;;;;;;;9.10;4.25;;;;;;;;;;5035824;27;94027;-75
2022/06/23 09:01:45;;;;;;;16.65;4.53;;;;;;;;;;4988636;27;94685;-75
2022/06/23 09:04:25;;;;;;;16.08;4.13;;;;;;;;;;5030791;27;94054;-73
2022/06/23 09:07:03;;;;;;;13.65;4.35;;;;;;;;;;5036742;27;95906;-75
2022/06/23 09:09:29;;;;;;;4.95;4.25;;;;;;;;;;5036272;27;94183;-75
2022/06/23 09:12:08;;;;;;;10.23;4.70;;;;;;;;;;5047036;27;91989;-80
2022/06/23 09:14:53;;;;;;;9.80;4.35;;;;;;;;;;5035651;27;93951;-76
2022/06/23 09:17:26;;;;;;;12.68;4.80;;;;;;;;;;5037183;27;92647;-78
2022/06/23 09:20:05;;;;;;;8.18;5.13;;;;;;;;;;5032836;27;94895;-73
2022/06/23 09:22:41;;;;;;;10.05;4.40;;;;;;;;;;5041297;27;94437;-73
2022/06/23 09:25:25;;;;;;;11.30;4.93;;;;;;;;;;5033951;27;92498;-73
2022/06/23 09:28:12;;;;;;;6.28;4.55;;;;;;;;;;5036146;27;93339;-73
2022/06/23 09:30:42;;;;;;;15.40;5.22;;;;;;;;;;5051952;27;94339;-73
2022/06/23 09:33:22;;;;;;;9.13;4.72;;;;;;;;;;5041925;27;92579;-73
2022/06/23 09:36:07;;;;;;;10.48;5.53;;;;;;;;;;5043046;27;92549;-73
2022/06/23 09:38:39;;;;;;;14.73;5.25;;;;;;;;;;5034596;27;91793;-73
2022/06/23 09:41:24;;;;;;;11.88;4.80;;;;;;;;;;5032852;27;92479;-73
2022/06/23 09:44:06;;;;;;;11.05;4.80;;;;;;;;;;5039655;27;93534;-73
2022/06/23 09:46:44;;;;;;;7.25;4.30;;;;;;;;;;5031482;27;94891;-73
2022/06/23 09:49:19;;;;;;;11.23;4.97;;;;;;;;;;5037246;27;96414;-73
2022/06/23 09:52:05;;;;;;;4.93;3.97;;;;;;;;;;5034852;27;93245;-73
2022/06/23 09:54:50;;;;;;;10.15;4.93;;;;;;;;;;5033359;27;92481;-73
2022/06/23 09:57:35;;;;;;;13.77;5.50;;;;;;;;;;5045457;27;93046;-73
2022/06/23 10:00:06;;;;;;;11.35;5.78;;;;;;;;;;5056252;27;94101;-74
2022/06/23 10:02:47;;;;;;;14.40;5.57;;;;;;;;;;5037317;27;92511;-74
2022/06/23 10:05:14;;;;;;;14.35;6.78;;;;;;;;;;5036748;27;93269;-73
2022/06/23 10:07:40;;;;;;;8.02;5.97;;;;;;;;;;5041891;27;93842;-74
2022/06/23 10:10:25;;;;;;;8.63;5.90;;;;;;;;;;5051483;27;92977;-74
2022/06/23 10:12:53;;;;;;;11.48;6.18;;;;;;;;;;5042785;27;96639;-74
2022/06/23 10:15:25;;;;;;;12.70;5.00;;;;;;;;;;5036073;27;92433;-73
2022/06/23 10:18:00;;;;;;;12.35;6.55;;;;;;;;;;5040084;27;94204;-74
2022/06/23 10:20:39;;;;;;;9.80;5.43;;;;;;;;;;5040458;27;93304;-73
2022/06/23 10:23:27;;;;;;;11.27;6.50;;;;;;;;;;5035799;27;92470;-73
2022/06/23 10:25:56;;;;;;;13.05;6.35;;;;;;;;;;5031888;27;93429;-73
2022/06/23 10:28:25;;;;;;;10.10;5.97;;;;;;;;;;5040505;27;92903;-73
2022/06/23 10:30:54;;;;;;;11.02;5.60;;;;;;;;;;5033791;27;94105;-73
2022/06/23 10:33:31;;;;;;;9.23;5.25;;;;;;;;;;5032242;27;93894;-73
2022/06/23 10:36:16;;;;;;;13.57;5.03;;;;;;;;;;5032417;27;92515;-72
2022/06/23 10:38:57;;;;;;;15.70;5.82;;;;;;;;;;5044391;27;96693;-72
2022/06/23 10:41:29;;;;;;;10.98;5.45;;;;;;;;;;5041111;27;94163;-72
2022/06/23 10:43:58;;;;;;;13.73;5.47;;;;;;;;;;5033045;27;93955;-72
2022/06/23 10:46:30;;;;;;;12.73;6.13;;;;;;;;;;5045460;27;93920;-72
2022/06/23 10:49:00;;;;;;;17.50;5.68;;;;;;;;;;5037301;27;92540;-72
2022/06/23 10:51:38;;;;;;;9.98;5.20;;;;;;;;;;5033675;27;94085;-73
2022/06/23 10:54:10;;;;;;;10.55;4.50;;;;;;;;;;5031012;27;93297;-72
2022/06/23 10:56:57;;;;;;;15.93;5.60;;;;;;;;;;5033417;27;91808;-72
2022/06/23 10:59:30;;;;;;;10.85;5.18;;;;;;;;;;5031718;27;92438;-72
2022/06/23 11:02:00;;;;;;;9.85;5.07;;;;;;;;;;5034735;27;94304;-73
2022/06/23 11:04:45;;;;;;;13.73;4.50;;;;;;;;;;5051269;27;94874;-72
2022/06/23 11:07:17;;;;;;;12.48;4.20;;;;;;;;;;5038288;27;95699;-72
2022/06/23 11:09:55;;;;;;;13.48;4.57;;;;;;;;;;5036240;27;93793;-72
2022/06/23 11:12:34;;;;;;;12.85;4.30;;;;;;;;;;5036600;27;94191;-73
2022/06/23 11:15:19;;;;;;;10.57;4.53;;;;;;;;;;5043917;27;94196;-74
2022/06/23 11:17:53;;;;;;;13.10;5.53;;;;;;;;;;5044783;27;92545;-73
2022/06/23 11:20:27;;;;;;;12.93;5.30;;;;;;;;;;5034310;27;93800;-73
2022/06/23 11:22:59;;;;;;;21.95;5.10;;;;;;;;;;5037656;27;92695;-73
2022/06/23 11:25:31;;;;;;;10.02;4.68;;;;;;;;;;5045879;27;92473;-73
2022/06/23 11:28:10;;;;;;;12.02;5.40;;;;;;;;;;5036373;27;93039;-73
2022/06/23 11:30:42;;;;;;;10.90;4.30;;;;;;;;;;5036300;27;96803;-73
2022/06/23 11:33:08;;;;;;;8.95;4.80;;;;;;;;;;5036382;27;95253;-73
2022/06/23 11:35:53;;;;;;;10.73;4.97;;;;;;;;;;5034415;27;93421;-73
2022/06/23 11:38:25;;;;;;;10.70;4.35;;;;;;;;;;5052220;27;92520;-73
2022/06/23 11:41:18;;;;;;;12.90;5.35;;;;;;;;;;5035408;27;94145;-74
2022/06/23 11:44:11;;;;;;;12.88;5.47;;;;;;;;;;5035612;27;94273;-74
2022/06/23 11:46:42;;;;;;;12.15;5.57;;;;;;;;;;5016329;27;93898;-73
2022/06/23 11:49:09;;;;;;;;;;;;;;;;;;5045458;27;93188;-73
2022/06/23 11:51:43;;;;;;;11.50;5.13;;;;;;;;;;5035248;27;123332;-73
2022/06/23 11:54:10;;;;;;;9.43;5.18;;;;;;;;;;5054994;27;92671;-74
2022/06/23 11:56:54;;;;;;;10.95;5.78;;;;;;;;;;5040780;27;95938;-74
2022/06/23 11:59:35;;;;;;;13.57;5.10;;;;;;;;;;5034115;27;97261;-73
2022/06/23 12:02:21;;;;;;;12.65;4.20;;;;;;;;;;5034989;27;92998;-72
2022/06/23 12:04:51;;;;;;;15.15;4.38;;;;;;;;;;5034505;27;94761;-73
2022/06/23 12:07:23;;;;;;;12.40;4.43;;;;;;;;;;5035125;27;93166;-73
2022/06/23 12:10:01;;;;;;;10.40;4.50;;;;;;;;;;5033757;27;94203;-73
2022/06/23 12:12:30;;;;;;;20.60;4.82;;;;;;;;;;5034678;27;92473;-73
2022/06/23 12:14:57;;;;;;;11.90;4.18;;;;;;;;;;5031432;27;92224;-73
2022/06/23 12:17:26;;;;;;;10.25;3.63;;;;;;;;;;5041919;27;93778;-73
2022/06/23 12:20:02;;;;;;;8.88;3.95;;;;;;;;;;5038884;27;94417;-72
2022/06/23 12:22:31;;;;;;;12.20;3.85;;;;;;;;;;5035705;27;94845;-72
2022/06/23 12:25:03;;;;;;;10.85;3.60;;;;;;;;;;5036173;27;94623;-72
2022/06/23 12:27:35;;;;;;;13.77;4.13;;;;;;;;;;5040063;27;94338;-72
2022/06/23 12:30:01;;;;;;;;;;;;;;;;;;5036137;27;93412;-72
2022/06/23 12:32:27;;;;;;;9.85;3.58;;;;;;;;;;5037282;27;121480;-73
2022/06/23 12:35:13;;;;;;;8.88;3.70;;;;;;;;;;5034524;27;93922;-72
2022/06/23 12:37:43;;;;;;;14.50;3.67;;;;;;;;;;5040759;27;94042;-73
2022/06/23 12:40:27;;;;;;;11.80;5.18;;;;;;;;;;5039416;27;93755;-73
2022/06/23 12:43:03;;;;;;;9.68;4.32;;;;;;;;;;5036047;27;92879;-73
2022/06/23 12:45:47;;;;;;;9.63;3.53;;;;;;;;;;5035883;27;93852;-73
2022/06/23 12:48:33;;;;;;;13.50;4.22;;;;;;;;;;5033093;27;96420;-73
2022/06/23 12:51:21;;;;;;;12.57;4.25;;;;;;;;;;5034217;27;95568;-73
2022/06/23 12:53:58;;;;;;;7.95;3.58;;;;;;;;;;5039014;27;93398;-73
2022/06/23 12:56:30;;;;;;;13.38;4.60;;;;;;;;;;5036129;27;94144;-72
2022/06/23 12:59:04;;;;;;;9.82;4.35;;;;;;;;;;5039292;27;94338;-74
2022/06/23 13:01:45;;;;;;;10.63;3.80;;;;;;;;;;5035502;27;94307;-74
2022/06/23 13:04:17;;;;;;;8.32;3.58;;;;;;;;;;5037374;27;95606;-73
2022/06/23 13:06:44;;;;;;;10.35;3.70;;;;;;;;;;5034399;27;93347;-74
2022/06/23 13:09:24;;;;;;;14.13;3.63;;;;;;;;;;5028748;27;92558;-75
2022/06/23 13:12:10;;;;;;;13.45;3.90;;;;;;;;;;5035889;27;93900;-75
2022/06/23 13:14:42;;;;;;;14.35;3.33;;;;;;;;;;5028788;27;98612;-74
2022/06/23 13:17:22;;;;;;;19.65;4.43;;;;;;;;;;5040758;27;92489;-74
2022/06/23 13:19:52;;;;;;;7.28;3.15;;;;;;;;;;5029692;27;94930;-73
2022/06/23 13:22:43;;;;;;;9.43;4.25;;;;;;;;;;5032261;27;93581;-74
2022/06/23 13:25:12;;;;;;;12.32;3.45;;;;;;;;;;5036824;27;93699;-73
2022/06/23 13:27:45;;;;;;;12.23;3.70;;;;;;;;;;5033543;27;94370;-74
2022/06/23 13:30:42;;;;;;;16.80;3.30;;;;;;;;;;5031702;27;93918;-74
2022/06/23 13:33:11;;;;;;;12.48;3.80;;;;;;;;;;5033901;27;93146;-73
2022/06/23 13:35:42;;;;;;;20.30;3.90;;;;;;;;;;5032803;27;93076;-74
2022/06/23 13:38:40;;;;;;;7.97;3.40;;;;;;;;;;5034034;27;92746;-76
2022/06/23 13:41:09;;;;;;;17.98;4.00;;;;;;;;;;5028238;27;94808;-76
2022/06/23 13:43:57;;;;;;;13.38;4.00;;;;;;;;;;5031806;27;93927;-75
2022/06/23 13:46:27;;;;;;;10.00;4.18;;;;;;;;;;5031235;27;94274;-76
2022/06/23 13:49:16;;;;;;;9.98;3.20;;;;;;;;;;5035628;27;93355;-74
2022/06/23 13:51:50;;;;;;;15.95;3.65;;;;;;;;;;5031883;27;92577;-76
2022/06/23 13:54:38;;;;;;;10.68;3.10;;;;;;;;;;5031659;27;93524;-75
2022/06/23 13:57:12;;;;;;;8.88;3.13;;;;;;;;;;5030171;27;93166;-74
2022/06/23 13:59:57;;;;;;;17.30;3.67;;;;;;;;;;5030714;27;94055;-73
2022/06/23 14:02:41;;;;;;;10.45;3.03;;;;;;;;;;5035451;27;92437;-73
2022/06/23 14:05:19;;;;;;;11.80;3.05;;;;;;;;;;5034550;27;94045;-73
2022/06/23 14:07:51;;;;;;;9.53;3.07;;;;;;;;;;5033515;27;97290;-73
2022/06/23 14:10:24;;;;;;;6.78;2.80;;;;;;;;;;5030510;27;95653;-73
2022/06/23 14:12:54;;;;;;;11.80;3.78;;;;;;;;;;5036197;27;94398;-74
2022/06/23 14:15:35;;;;;;;12.52;3.22;;;;;;;;;;5043583;27;94190;-73
2022/06/23 14:18:13;;;;;;;10.52;3.53;;;;;;;;;;5038892;27;94447;-73
2022/06/23 14:20:47;;;;;;;15.13;3.53;;;;;;;;;;5038333;27;94026;-73
2022/06/23 14:23:19;;;;;;;11.40;3.03;;;;;;;;;;5032911;27;93989;-73
2022/06/23 14:25:50;;;;;;;5.65;3.25;;;;;;;;;;5034817;27;93455;-73
2022/06/23 14:28:31;;;;;;;14.20;3.30;;;;;;;;;;5033572;27;92551;-74
2022/06/23 14:31:03;;;;;;;9.23;3.73;;;;;;;;;;5033267;27;94455;-72
2022/06/23 14:33:39;;;;;;;8.48;3.08;;;;;;;;;;5049510;27;96554;-72
2022/06/23 14:36:07;;;;;;;11.02;3.28;;;;;;;;;;5038788;27;92618;-73
2022/06/23 14:38:43;;;;;;;13.73;3.75;;;;;;;;;;5036510;27;93779;-73
2022/06/23 14:41:18;;;;;;;7.25;3.47;;;;;;;;;;5034398;27;94217;-72
2022/06/23 14:43:58;;;;;;;7.28;2.97;;;;;;;;;;5038279;27;93365;-72
2022/06/23 14:46:28;;;;;;;18.17;3.17;;;;;;;;;;5041309;27;93257;-73
2022/06/23 14:48:55;;;;;;;13.60;3.50;;;;;;;;;;5036680;27;92585;-73
2022/06/23 14:51:42;;;;;;;8.00;3.75;;;;;;;;;;5038271;27;93994;-73
2022/06/23 14:54:14;;;;;;;8.05;3.25;;;;;;;;;;5033454;27;94354;-72
2022/06/23 14:56:47;;;;;;;7.60;3.35;;;;;;;;;;5035487;27;93062;-73
2022/06/23 14:59:32;;;;;;;6.85;3.20;;;;;;;;;;5045813;27;94898;-73
2022/06/23 15:01:58;;;;;;;4.82;3.13;;;;;;;;;;5039038;27;95358;-72
2022/06/23 15:04:45;;;;;;;8.77;3.17;;;;;;;;;;5036081;27;93120;-73
2022/06/23 15:07:20;;;;;;;7.22;3.40;;;;;;;;;;5035966;27;94094;-73
2022/06/23 15:09:59;;;;;;;7.68;3.45;;;;;;;;;;5035470;27;93524;-73
2022/06/23 15:12:43;;;;;;;7.97;3.30;;;;;;;;;;5035094;27;93796;-73
2022/06/23 15:15:16;;;;;;;12.68;4.30;;;;;;;;;;5032896;27;94147;-71
2022/06/23 15:17:42;;;;;;;13.00;3.40;;;;;;;;;;5034579;27;93728;-72
2022/06/23 15:20:14;;;;;;;10.57;3.47;;;;;;;;;;5032394;27;93528;-72
2022/06/23 15:25:40;;;;;;;8.02;3.30;;;;;;;;;;5031353;27;96749;-69